createdAt,value
2022-10-21T00:02:27.602Z,100785.22
2022-10-21T00:04:55.445Z,100784.59
2022-10-21T00:07:23.313Z,100778.34
2022-10-21T00:09:49.899Z,100786.28
2022-10-21T00:12:17.943Z,100780.06
2022-10-21T00:14:45.701Z,100767.63
2022-10-21T00:17:13.559Z,100774.72
2022-10-21T00:19:42.815Z,100771.91
2022-10-21T00:22:10.679Z,100768.50
2022-10-21T00:24:38.689Z,100770.19
2022-10-21T00:27:06.397Z,100762.28
2022-10-21T00:29:34.218Z,100753.50
2022-10-21T00:32:02.104Z,100759.47
2022-10-21T00:34:30.982Z,100760.34
2022-10-21T00:36:58.996Z,100760.34
2022-10-21T00:39:27.016Z,100760.09
2022-10-21T00:41:56.759Z,100758.38
2022-10-21T00:44:23.407Z,100765.47
2022-10-21T00:47:05.396Z,100756.44
2022-10-21T00:49:40.619Z,100754.75
2022-10-21T00:52:21.923Z,100745.47
2022-10-21T00:54:53.012Z,100747.91
2022-10-21T00:57:24.439Z,100734.50
2022-10-21T00:59:58.029Z,100737.94
2022-10-21T01:02:24.778Z,100728.91
2022-10-21T01:04:58.507Z,100727.22
2022-10-21T01:07:26.282Z,100726.97
2022-10-21T01:09:53.929Z,100709.88
2022-10-21T01:12:43.640Z,100710.66
2022-10-21T01:15:34.118Z,100706.72
2022-10-21T01:18:03.657Z,100703.13
2022-10-21T01:20:56.272Z,100701.16
2022-10-21T01:23:50.692Z,100695.78
2022-10-21T01:26:35.352Z,100701.63
2022-10-21T01:29:38.725Z,100697.03
2022-10-21T01:32:42.850Z,100694.22
2022-10-21T01:35:38.454Z,100686.28
2022-10-21T01:38:29.526Z,100690.91
2022-10-21T01:41:10.879Z,100684.81
2022-10-21T01:44:22.690Z,100683.09
2022-10-21T01:47:18.760Z,100685.06
2022-10-21T01:50:04.697Z,100690.41
2022-10-21T01:52:32.992Z,100684.34
2022-10-21T01:55:06.612Z,100677.34
2022-10-21T01:57:58.166Z,100674.66
2022-10-21T02:00:26.386Z,100675.00
2022-10-21T02:02:54.235Z,100678.69
2022-10-21T02:05:23.740Z,100681.63
2022-10-21T02:07:51.764Z,100674.53
2022-10-21T02:10:19.988Z,100672.81
2022-10-21T02:12:51.468Z,100676.50
2022-10-21T02:15:19.911Z,100675.75
2022-10-21T02:18:00.408Z,100675.13
2022-10-21T02:20:30.165Z,100674.53
2022-10-21T02:22:58.656Z,100676.69
2022-10-21T02:25:29.839Z,100662.94
2022-10-21T02:27:58.149Z,100673.75
2022-10-21T02:30:30.733Z,100668.66
2022-10-21T02:33:08.172Z,100675.72
2022-10-21T02:36:05.891Z,100675.97
2022-10-21T02:38:42.220Z,100687.28
2022-10-21T02:41:19.933Z,100686.44
2022-10-21T02:44:00.616Z,100671.22
2022-10-21T02:46:39.965Z,100675.72
2022-10-21T02:49:08.514Z,100683.00
2022-10-21T02:51:36.973Z,100683.00
2022-10-21T02:54:04.770Z,100680.44
2022-10-21T02:56:33.113Z,100678.88
2022-10-21T02:59:01.477Z,100678.13
2022-10-21T03:01:29.243Z,100676.44
2022-10-21T03:03:57.287Z,100676.66
2022-10-21T03:06:25.269Z,100684.00
2022-10-21T03:08:53.008Z,100683.00
2022-10-21T03:11:21.094Z,100680.31
2022-10-21T03:13:48.957Z,100670.59
2022-10-21T03:18:44.372Z,100677.16
2022-10-21T03:21:12.033Z,100669.59
2022-10-21T03:23:40.024Z,100655.72
2022-10-21T03:26:06.601Z,100650.38
2022-10-21T03:28:33.135Z,100653.28
2022-10-21T03:31:01.284Z,100649.16
2022-10-21T03:33:29.070Z,100646.59
2022-10-21T03:35:59.430Z,100651.06
2022-10-21T03:38:27.636Z,100656.69
2022-10-21T03:40:55.534Z,100653.50
2022-10-21T03:43:25.526Z,100647.66
2022-10-21T03:45:53.570Z,100647.16
2022-10-21T03:48:20.195Z,100654.91
2022-10-21T03:50:46.947Z,100645.53
2022-10-21T03:53:37.933Z,100645.13
2022-10-21T03:56:05.138Z,100638.56
2022-10-21T03:58:32.017Z,100635.59
2022-10-21T04:00:58.584Z,100631.78
2022-10-21T04:03:25.139Z,100640.19
2022-10-21T04:05:53.363Z,100638.69
2022-10-21T04:08:20.655Z,100643.66
2022-10-21T04:10:49.065Z,100643.25
2022-10-21T04:13:19.429Z,100642.22
2022-10-21T04:15:47.049Z,100634.53
2022-10-21T04:18:15.123Z,100636.06
2022-10-21T04:20:42.924Z,100630.09
2022-10-21T04:23:10.686Z,100626.91
2022-10-21T04:25:38.598Z,100611.06
2022-10-21T04:28:05.829Z,100616.66
2022-10-21T04:30:36.212Z,100612.69
2022-10-21T04:33:03.322Z,100608.66
2022-10-21T04:35:31.816Z,100615.41
2022-10-21T04:38:01.017Z,100605.16
2022-10-21T04:40:36.358Z,100600.03
2022-10-21T04:43:06.524Z,100598.31
2022-10-21T04:45:33.424Z,100609.22
2022-10-21T04:48:00.030Z,100602.63
2022-10-21T04:50:30.336Z,100609.16
2022-10-21T04:52:56.966Z,100611.63
2022-10-21T04:55:25.063Z,100612.91
2022-10-21T04:57:53.089Z,100613.34
2022-10-21T05:00:21.137Z,100616.44
2022-10-21T05:02:48.750Z,100617.63
2022-10-21T05:05:16.612Z,100616.31
2022-10-21T05:07:44.428Z,100613.53
2022-10-21T05:10:12.068Z,100610.56
2022-10-21T05:12:39.684Z,100609.03
2022-10-21T05:15:08.110Z,100613.09
2022-10-21T05:17:36.971Z,100606.25
2022-10-21T05:20:05.399Z,100602.81
2022-10-21T05:22:33.171Z,100605.69
2022-10-21T05:24:59.710Z,100595.31
2022-10-21T05:27:26.259Z,100603.44
2022-10-21T05:29:54.066Z,100611.34
2022-10-21T05:32:21.632Z,100617.56
2022-10-21T05:34:49.300Z,100608.56
2022-10-21T05:37:17.277Z,100615.84
2022-10-21T05:39:43.894Z,100608.38
2022-10-21T05:42:11.583Z,100609.88
2022-10-21T05:44:38.201Z,100609.88
2022-10-21T05:47:06.107Z,100611.19
2022-10-21T05:49:34.097Z,100600.28
2022-10-21T05:52:02.507Z,100602.53
2022-10-21T05:54:30.683Z,100602.13
2022-10-21T05:56:58.728Z,100609.47
2022-10-21T05:59:27.006Z,100606.06
2022-10-21T06:01:53.694Z,100596.78
2022-10-21T06:04:20.276Z,100604.56
2022-10-21T06:06:46.995Z,100599.19
2022-10-21T06:09:13.698Z,100599.81
2022-10-21T06:11:40.325Z,100603.53
2022-10-21T06:14:07.023Z,100613.84
2022-10-21T06:16:35.447Z,100621.94
2022-10-21T06:19:03.357Z,100621.25
2022-10-21T06:21:30.101Z,100607.47
2022-10-21T06:23:56.713Z,100608.00
2022-10-21T06:26:23.436Z,100602.69
2022-10-21T06:28:50.188Z,100599.81
2022-10-21T06:31:20.618Z,100605.72
2022-10-21T06:33:47.492Z,100605.97
2022-10-21T06:36:14.418Z,100593.56
2022-10-21T06:38:41.709Z,100591.88
2022-10-21T06:41:13.288Z,100604.06
2022-10-21T06:43:41.439Z,100601.38
2022-10-21T06:46:10.915Z,100591.88
2022-10-21T06:48:38.167Z,100583.94
2022-10-21T06:51:08.804Z,100587.72
2022-10-21T06:53:39.075Z,100592.53
2022-10-21T06:56:13.762Z,100582.56
2022-10-21T06:58:43.497Z,100589.22
2022-10-21T07:01:27.717Z,100578.47
2022-10-21T07:04:03.333Z,100573.53
2022-10-21T07:06:30.683Z,100566.06
2022-10-21T07:08:58.806Z,100566.06
2022-10-21T07:11:27.108Z,100561.06
2022-10-21T07:13:53.790Z,100570.75
2022-10-21T07:16:29.891Z,100568.88
2022-10-21T07:18:56.860Z,100579.91
2022-10-21T07:21:26.099Z,100586.88
2022-10-21T07:23:56.513Z,100583.25
2022-10-21T07:26:26.792Z,100587.94
2022-10-21T07:28:54.933Z,100582.13
2022-10-21T07:31:21.952Z,100572.06
2022-10-21T07:33:49.121Z,100582.69
2022-10-21T07:36:20.301Z,100572.97
2022-10-21T07:38:48.489Z,100573.53
2022-10-21T07:41:21.002Z,100581.16
2022-10-21T07:43:48.129Z,100584.56
2022-10-21T07:46:15.402Z,100580.38
2022-10-21T07:48:42.273Z,100568.56
2022-10-21T07:51:11.520Z,100572.84
2022-10-21T07:53:40.151Z,100581.53
2022-10-21T07:56:19.191Z,100589.94
2022-10-21T07:58:49.301Z,100583.38
2022-10-21T08:01:16.889Z,100585.75
2022-10-21T08:03:44.141Z,100585.38
2022-10-21T08:06:12.603Z,100581.75
2022-10-21T08:08:39.978Z,100585.50
2022-10-21T08:11:07.138Z,100585.38
2022-10-21T08:13:35.007Z,100579.03
2022-10-21T08:16:04.685Z,100562.13
2022-10-21T08:18:31.332Z,100554.44
2022-10-21T08:20:58.025Z,100546.28
2022-10-21T08:23:26.452Z,100543.88
2022-10-21T08:25:56.669Z,100525.13
2022-10-21T08:28:25.553Z,100520.38
2022-10-21T08:30:52.245Z,100518.16
2022-10-21T08:33:19.390Z,100518.69
2022-10-21T08:35:46.066Z,100504.31
2022-10-21T08:38:12.719Z,100517.69
2022-10-21T08:40:46.235Z,100525.13
2022-10-21T08:43:33.880Z,100521.75
2022-10-21T08:46:03.246Z,100514.28
2022-10-21T08:48:36.312Z,100505.16
2022-10-21T08:51:06.573Z,100511.41
2022-10-21T08:53:42.329Z,100516.00
2022-10-21T08:56:18.639Z,100522.44
2022-10-21T08:58:50.363Z,100517.34
2022-10-21T09:01:34.131Z,100528.81
2022-10-21T09:04:10.353Z,100530.38
2022-10-21T09:07:02.205Z,100532.88
2022-10-21T09:09:38.564Z,100531.63
2022-10-21T09:12:19.948Z,100535.84
2022-10-21T09:15:10.332Z,100536.50
2022-10-21T09:18:21.861Z,100524.13
2022-10-21T09:21:03.157Z,100513.69
2022-10-21T09:23:42.734Z,100515.16
2022-10-21T09:26:30.648Z,100526.78
2022-10-21T09:28:57.607Z,100531.97
2022-10-21T09:31:24.228Z,100532.03
2022-10-21T09:33:58.336Z,100532.28
2022-10-21T09:36:32.539Z,100537.63
2022-10-21T09:39:10.906Z,100524.81
2022-10-21T09:41:42.868Z,100525.88
2022-10-21T09:44:19.429Z,100522.53
2022-10-21T09:46:47.766Z,100509.03
2022-10-21T09:50:01.602Z,100523.09
2022-10-21T09:52:20.150Z,100517.47
2022-10-21T09:54:47.522Z,100514.53
2022-10-21T09:57:16.088Z,100509.66
2022-10-21T10:00:00.110Z,100512.06
2022-10-21T10:02:37.359Z,100500.34
2022-10-21T10:05:44.101Z,100498.78
2022-10-21T10:08:19.859Z,100496.84
2022-10-21T10:10:46.511Z,100496.41
2022-10-21T10:13:18.717Z,100493.00
2022-10-21T10:15:45.467Z,100477.75
2022-10-21T10:18:23.672Z,100479.22
2022-10-21T10:21:15.495Z,100482.88
2022-10-21T10:23:48.585Z,100475.16
2022-10-21T10:26:22.200Z,100476.69
2022-10-21T10:28:52.227Z,100474.50
2022-10-21T10:31:33.825Z,100469.94
2022-10-21T10:34:07.699Z,100470.78
2022-10-21T10:36:40.517Z,100465.63
2022-10-21T10:39:16.662Z,100461.31
2022-10-21T10:41:48.542Z,100456.41
2022-10-21T10:44:37.090Z,100446.00
2022-10-21T10:47:05.674Z,100459.19
2022-10-21T10:49:41.486Z,100452.78
2022-10-21T10:52:11.030Z,100454.47
2022-10-21T10:54:42.249Z,100440.72
2022-10-21T10:57:34.163Z,100440.38
2022-10-21T11:00:21.120Z,100454.28
2022-10-21T11:03:10.693Z,100448.97
2022-10-21T11:05:45.190Z,100438.81
2022-10-21T11:08:34.237Z,100443.31
2022-10-21T11:11:04.962Z,100430.69
2022-10-21T11:13:35.500Z,100415.09
2022-10-21T11:16:05.721Z,100409.28
2022-10-21T11:18:40.588Z,100410.34
2022-10-21T11:21:42.608Z,100412.81
2022-10-21T11:24:09.178Z,100401.78
2022-10-21T11:26:51.071Z,100398.03
2022-10-21T11:29:39.710Z,100390.25
2022-10-21T11:32:11.647Z,100393.44
2022-10-21T11:34:51.072Z,100395.13
2022-10-21T11:37:27.862Z,100404.75
2022-10-21T11:40:03.589Z,100403.22
2022-10-21T11:42:42.924Z,100391.94
2022-10-21T11:45:12.310Z,100386.22
2022-10-21T11:47:56.995Z,100386.13
2022-10-21T11:50:48.081Z,100384.88
2022-10-21T11:53:36.426Z,100392.81
2022-10-21T11:56:13.105Z,100380.31
2022-10-21T11:58:42.634Z,100366.06
2022-10-21T12:01:30.767Z,100370.91
2022-10-21T12:04:26.162Z,100370.31
2022-10-21T12:07:28.277Z,100355.59
2022-10-21T12:10:17.530Z,100352.28
2022-10-21T12:12:49.229Z,100349.31
2022-10-21T12:15:20.694Z,100340.78
2022-10-21T12:17:50.745Z,100350.38
2022-10-21T12:20:28.340Z,100338.72
2022-10-21T12:23:05.843Z,100327.75
2022-10-21T12:25:41.234Z,100335.97
2022-10-21T12:28:32.474Z,100326.78
2022-10-21T12:31:32.610Z,100326.63
2022-10-21T12:33:59.633Z,100342.44
2022-10-21T12:36:38.494Z,100327.75
2022-10-21T12:39:09.974Z,100312.63
2022-10-21T12:41:38.004Z,100306.09
2022-10-21T12:44:34.100Z,100303.44
2022-10-21T12:47:05.120Z,100313.31
2022-10-21T12:49:35.800Z,100309.00
2022-10-21T12:52:25.788Z,100320.00
2022-10-21T12:54:58.161Z,100327.16
2022-10-21T12:57:32.080Z,100329.31
2022-10-21T13:00:27.377Z,100325.31
2022-10-21T13:03:13.599Z,100319.09
2022-10-21T13:05:40.135Z,100316.50
2022-10-21T13:08:24.495Z,100316.97
2022-10-21T13:11:02.889Z,100315.34
2022-10-21T13:13:40.494Z,100316.97
2022-10-21T13:16:15.822Z,100310.19
2022-10-21T13:18:52.382Z,100310.16
2022-10-21T13:21:38.401Z,100304.53
2022-10-21T13:24:21.297Z,100304.44
2022-10-21T13:26:57.384Z,100314.91
2022-10-21T13:29:49.261Z,100312.22
2022-10-21T13:32:17.363Z,100304.09
2022-10-21T13:34:59.417Z,100294.34
2022-10-21T13:37:38.909Z,100289.88
2022-10-21T13:40:17.449Z,100289.19
2022-10-21T13:42:49.547Z,100305.06
2022-10-21T13:45:43.159Z,100302.16
2022-10-21T13:48:24.434Z,100295.25
2022-10-21T13:50:53.439Z,100295.25
2022-10-21T13:53:35.529Z,100292.97
2022-10-21T13:56:05.853Z,100308.81
2022-10-21T13:58:41.201Z,100302.56
2022-10-21T14:01:31.346Z,100309.28
2022-10-21T14:04:16.147Z,100317.13
2022-10-21T14:06:48.275Z,100313.53
2022-10-21T14:09:26.996Z,100319.38
2022-10-21T14:12:00.126Z,100318.50
2022-10-21T14:14:29.182Z,100314.63
2022-10-21T14:17:08.170Z,100308.34
2022-10-21T14:19:38.686Z,100307.72
2022-10-21T14:24:47.794Z,100303.16
2022-10-21T14:27:20.350Z,100298.94
2022-10-21T14:29:47.823Z,100300.63
2022-10-21T14:32:16.591Z,100297.44
2022-10-21T14:35:22.890Z,100304.78
2022-10-21T14:37:55.982Z,100295.50
2022-10-21T14:40:39.614Z,100293.81
2022-10-21T14:43:20.512Z,100302.56
2022-10-21T14:45:50.837Z,100295.13
2022-10-21T14:48:27.376Z,100303.28
2022-10-21T14:50:59.988Z,100306.41
2022-10-21T14:53:29.641Z,100307.44
2022-10-21T14:55:59.040Z,100299.34
2022-10-21T14:58:47.036Z,100299.44
2022-10-21T15:01:18.269Z,100294.91
2022-10-21T15:03:47.581Z,100296.47
2022-10-21T15:06:20.622Z,100292.22
2022-10-21T15:08:56.604Z,100287.69
2022-10-21T15:11:25.996Z,100290.69
2022-10-21T15:14:20.043Z,100296.84
2022-10-21T15:16:54.382Z,100286.19
2022-10-21T15:19:42.222Z,100289.88
2022-10-21T15:22:21.830Z,100283.91
2022-10-21T15:24:48.893Z,100287.59
2022-10-21T15:27:28.270Z,100285.81
2022-10-21T15:29:55.188Z,100285.25
2022-10-21T15:32:25.620Z,100273.09
2022-10-21T15:34:55.116Z,100272.53
2022-10-21T15:37:21.761Z,100273.28
2022-10-21T15:39:48.796Z,100274.53
2022-10-21T15:42:22.764Z,100266.94
2022-10-21T15:44:53.665Z,100267.31
2022-10-21T15:47:20.767Z,100269.75
2022-10-21T15:49:52.249Z,100270.50
2022-10-21T15:52:18.864Z,100258.31
2022-10-21T15:54:46.540Z,100259.06
2022-10-21T15:57:19.526Z,100261.78
2022-10-21T15:59:48.446Z,100261.50
2022-10-21T16:02:17.810Z,100266.00
2022-10-21T16:04:46.174Z,100262.97
2022-10-21T16:07:37.121Z,100272.53
2022-10-21T16:10:26.017Z,100264.09
2022-10-21T16:12:54.451Z,100263.16
2022-10-21T16:15:22.512Z,100258.44
2022-10-21T16:17:51.907Z,100267.97
2022-10-21T16:20:22.273Z,100275.84
2022-10-21T16:22:49.339Z,100269.47
2022-10-21T16:25:16.546Z,100276.97
2022-10-21T16:27:51.465Z,100268.53
2022-10-21T16:30:23.995Z,100262.13
2022-10-21T16:32:51.406Z,100269.44
2022-10-21T16:35:20.392Z,100272.03
2022-10-21T16:37:47.885Z,100269.69
2022-10-21T16:40:24.475Z,100261.22
2022-10-21T16:42:52.084Z,100262.28
2022-10-21T16:45:21.449Z,100256.53
2022-10-21T16:47:52.977Z,100257.56
2022-10-21T16:50:41.596Z,100273.19
2022-10-21T16:53:14.744Z,100279.66
2022-10-21T16:55:41.476Z,100287.13
2022-10-21T16:58:08.194Z,100295.25
2022-10-21T17:00:36.165Z,100289.19
2022-10-21T17:03:06.102Z,100286.47
2022-10-21T17:08:04.320Z,100273.59
2022-10-21T17:10:30.901Z,100279.41
2022-10-21T17:12:59.409Z,100278.06
2022-10-21T17:15:27.759Z,100288.25
2022-10-21T17:17:54.474Z,100282.19
2022-10-21T17:20:21.245Z,100286.09
2022-10-21T17:22:49.439Z,100287.09
2022-10-21T17:25:16.110Z,100284.59
2022-10-21T17:27:42.945Z,100279.53
2022-10-21T17:30:10.409Z,100275.75
2022-10-21T17:32:37.086Z,100279.53
2022-10-21T17:35:03.961Z,100273.56
2022-10-21T17:37:30.697Z,100278.50
2022-10-21T17:39:57.514Z,100284.28
2022-10-21T17:42:24.165Z,100287.19
2022-10-21T17:44:50.888Z,100292.47
2022-10-21T17:47:17.633Z,100287.06
2022-10-21T17:49:44.290Z,100278.22
2022-10-21T17:52:10.996Z,100281.13
2022-10-21T17:54:37.717Z,100276.91
2022-10-21T17:57:04.661Z,100270.78
2022-10-21T17:59:32.808Z,100270.50
2022-10-21T18:02:00.246Z,100272.53
2022-10-21T18:04:27.484Z,100265.78
2022-10-21T18:06:54.455Z,100266.47
2022-10-21T18:09:21.239Z,100269.38
2022-10-21T18:11:48.038Z,100266.00
2022-10-21T18:14:14.670Z,100272.97
2022-10-21T18:16:41.392Z,100271.63
2022-10-21T18:19:08.100Z,100268.59
2022-10-21T18:21:34.745Z,100278.78
2022-10-21T18:24:01.377Z,100270.97
2022-10-21T18:26:30.841Z,100273.38
2022-10-21T18:29:00.306Z,100264.91
2022-10-21T18:31:30.008Z,100280.69
2022-10-21T18:33:58.251Z,100280.53
2022-10-21T18:36:25.617Z,100275.47
2022-10-21T18:38:52.935Z,100277.00
2022-10-21T18:41:21.354Z,100271.09
2022-10-21T18:43:53.968Z,100271.41
2022-10-21T18:46:22.119Z,100264.66
2022-10-21T18:48:49.592Z,100279.75
2022-10-21T18:51:17.788Z,100279.06
2022-10-21T18:53:48.310Z,100280.56
2022-10-21T18:56:18.728Z,100274.78
2022-10-21T18:58:45.351Z,100264.81
2022-10-21T19:01:15.433Z,100268.38
2022-10-21T19:03:43.511Z,100257.56
2022-10-21T19:06:19.437Z,100254.53
2022-10-21T19:08:47.552Z,100253.81
2022-10-21T19:11:14.676Z,100253.16
2022-10-21T19:13:41.770Z,100251.78
2022-10-21T19:16:09.094Z,100265.66
2022-10-21T19:18:36.812Z,100263.97
2022-10-21T19:21:04.751Z,100257.22
2022-10-21T19:23:33.847Z,100272.91
2022-10-21T19:26:03.131Z,100274.44
2022-10-21T19:28:30.971Z,100286.94
2022-10-21T19:30:58.456Z,100276.59
2022-10-21T19:33:26.231Z,100277.25
2022-10-21T19:35:53.665Z,100287.25
2022-10-21T19:38:32.560Z,100282.16
2022-10-21T19:41:11.377Z,100274.53
2022-10-21T19:43:38.891Z,100274.03
2022-10-21T19:46:07.784Z,100277.75
2022-10-21T19:48:37.795Z,100264.38
2022-10-21T19:51:05.376Z,100272.66
2022-10-21T19:53:35.163Z,100267.56
2022-10-21T19:56:06.302Z,100272.31
2022-10-21T19:58:34.042Z,100281.25
2022-10-21T20:01:11.112Z,100282.59
2022-10-21T20:03:40.021Z,100282.06
2022-10-21T20:06:15.225Z,100277.97
2022-10-21T20:08:43.116Z,100277.97
2022-10-21T20:11:13.456Z,100283.69
2022-10-21T20:13:41.396Z,100274.91
2022-10-21T20:16:08.117Z,100265.06
2022-10-21T20:18:35.153Z,100265.06
2022-10-21T20:21:07.804Z,100274.22
2022-10-21T20:23:35.257Z,100266.25
2022-10-21T20:26:02.451Z,100266.09
2022-10-21T20:28:31.319Z,100267.59
2022-10-21T20:31:07.804Z,100260.38
2022-10-21T20:33:38.181Z,100253.94
2022-10-21T20:36:07.381Z,100250.56
2022-10-21T20:38:34.828Z,100258.00
2022-10-21T20:41:06.718Z,100259.97
2022-10-21T20:43:37.062Z,100253.91
2022-10-21T20:46:09.389Z,100256.59
2022-10-21T20:48:39.669Z,100257.78
2022-10-21T20:51:11.412Z,100251.53
2022-10-21T20:53:40.254Z,100256.94
2022-10-21T20:56:07.669Z,100254.22
2022-10-21T20:58:38.748Z,100248.34
2022-10-21T21:01:13.645Z,100238.03
2022-10-21T21:03:42.889Z,100232.63
2022-10-21T21:06:11.724Z,100249.56
2022-10-21T21:08:48.659Z,100252.25
2022-10-21T21:11:21.034Z,100250.03
2022-10-21T21:13:48.137Z,100243.78
2022-10-21T21:16:17.409Z,100234.66
2022-10-21T21:18:49.453Z,100236.69
2022-10-21T21:21:18.773Z,100225.00
2022-10-21T21:23:45.727Z,100222.84
2022-10-21T21:26:26.746Z,100230.41
2022-10-21T21:28:54.401Z,100222.47
2022-10-21T21:31:23.264Z,100231.28
2022-10-21T21:33:50.250Z,100228.44
2022-10-21T21:36:18.778Z,100221.81
2022-10-21T21:38:47.484Z,100235.34
2022-10-21T21:41:16.634Z,100227.22
2022-10-21T21:43:48.002Z,100229.25
2022-10-21T21:46:22.842Z,100219.63
2022-10-21T21:48:56.116Z,100213.03
2022-10-21T21:51:26.211Z,100215.59
2022-10-21T21:54:16.886Z,100211.00
2022-10-21T21:56:45.497Z,100206.31
2022-10-21T21:59:12.147Z,100203.25
2022-10-21T22:01:38.867Z,100200.38
2022-10-21T22:04:05.586Z,100195.84
2022-10-21T22:06:35.638Z,100203.78
2022-10-21T22:09:03.826Z,100194.97
2022-10-21T22:11:34.728Z,100190.44
2022-10-21T22:14:02.846Z,100190.13
2022-10-21T22:16:32.697Z,100170.50
2022-10-21T22:19:01.103Z,100159.69
2022-10-21T22:21:29.481Z,100165.41
2022-10-21T22:23:56.187Z,100173.53
2022-10-21T22:26:23.456Z,100195.84
2022-10-21T22:28:51.219Z,100198.38
2022-10-21T22:31:19.109Z,100200.59
2022-10-21T22:33:46.664Z,100198.56
2022-10-21T22:36:13.769Z,100187.44
2022-10-21T22:38:40.370Z,100179.84
2022-10-21T22:41:12.175Z,100175.97
2022-10-21T22:43:39.568Z,100177.34
2022-10-21T22:46:35.172Z,100181.41
2022-10-21T22:48:54.375Z,100196.63
2022-10-21T22:51:21.085Z,100200.00
2022-10-21T22:53:53.369Z,100200.69
2022-10-21T22:56:23.143Z,100204.22
2022-10-21T22:58:49.721Z,100188.84
2022-10-21T23:01:19.377Z,100185.13
2022-10-21T23:03:45.967Z,100185.63
2022-10-21T23:06:12.551Z,100204.41
2022-10-21T23:08:39.308Z,100211.50
2022-10-21T23:11:13.277Z,100221.50
2022-10-21T23:13:51.164Z,100215.22
2022-10-21T23:16:27.778Z,100209.81
2022-10-21T23:18:54.442Z,100219.78
2022-10-21T23:21:21.199Z,100219.78
2022-10-21T23:23:47.731Z,100224.38
2022-10-21T23:26:14.336Z,100217.25
2022-10-21T23:28:40.933Z,100214.56
2022-10-21T23:31:09.070Z,100215.22
2022-10-21T23:33:35.666Z,100202.72
2022-10-21T23:36:02.392Z,100200.19
2022-10-21T23:38:29.000Z,100220.63
2022-10-21T23:40:55.837Z,100219.47
2022-10-21T23:43:22.443Z,100207.16
2022-10-21T23:45:49.185Z,100198.00
2022-10-21T23:48:15.861Z,100202.41
2022-10-21T23:50:44.033Z,100203.06
2022-10-21T23:53:11.564Z,100207.16
2022-10-21T23:55:38.148Z,100212.19
2022-10-21T23:58:04.797Z,100210.84
